createdAt,value
2019-04-11T00:00:05.561Z,54.80
2019-04-11T00:35:19.673Z,55.30
2019-04-11T00:43:47.409Z,54.10
2019-04-11T00:46:51.499Z,53.80
2019-04-11T01:00:33.286Z,54.30
2019-04-11T01:06:05.794Z,54.30
2019-04-11T01:08:57.348Z,54.00
2019-04-11T01:11:49.757Z,54.50
2019-04-11T01:14:38.928Z,54.10
2019-04-11T01:20:37.711Z,52.80
2019-04-11T01:26:01.160Z,53.70
2019-04-11T01:28:32.620Z,54.50
2019-04-11T01:31:03.703Z,54.70
2019-04-11T01:33:35.917Z,55.10
2019-04-11T01:36:09.319Z,55.70
2019-04-11T01:38:46.308Z,54.80
2019-04-11T01:41:20.464Z,54.50
2019-04-11T01:43:56.507Z,55.40
2019-04-11T01:46:22.273Z,55.70
2019-04-11T01:49:12.247Z,55.00
2019-04-11T01:51:50.240Z,55.30
2019-04-11T01:54:21.666Z,55.50
2019-04-11T01:56:51.629Z,55.70
2019-04-11T01:59:21.710Z,55.60
2019-04-11T02:02:09.735Z,56.40
2019-04-11T02:04:55.040Z,55.30
2019-04-11T02:07:26.827Z,54.60
2019-04-11T02:10:02.384Z,54.40
2019-04-11T02:12:37.427Z,55.00
2019-04-11T02:15:08.302Z,54.30
2019-04-11T02:17:43.275Z,55.00
2019-04-11T02:20:18.780Z,54.00
2019-04-11T02:22:54.940Z,54.00
2019-04-11T02:25:36.580Z,54.50
2019-04-11T02:28:08.804Z,54.70
2019-04-11T02:30:43.487Z,54.30
2019-04-11T02:33:14.159Z,53.80
2019-04-11T02:35:44.764Z,54.50
2019-04-11T02:38:16.587Z,55.10
2019-04-11T02:40:52.590Z,54.90
2019-04-11T02:43:25.095Z,54.20
2019-04-11T02:46:08.811Z,54.40
2019-04-11T02:48:28.907Z,53.30
2019-04-11T02:50:58.519Z,53.00
2019-04-11T02:53:29.674Z,53.30
2019-04-11T02:56:00.461Z,54.20
2019-04-11T02:58:30.295Z,53.60
2019-04-11T03:01:05.248Z,54.00
2019-04-11T03:03:37.186Z,53.30
2019-04-11T03:06:11.737Z,53.90
2019-04-11T03:08:43.519Z,53.20
2019-04-11T03:11:19.164Z,53.70
2019-04-11T03:13:54.848Z,53.40
2019-04-11T03:16:38.199Z,52.90
2019-04-11T03:19:13.024Z,52.70
2019-04-11T03:21:33.029Z,52.20
2019-04-11T03:24:06.178Z,53.20
2019-04-11T03:26:37.745Z,53.20
2019-04-11T03:29:12.863Z,52.30
2019-04-11T03:32:17.564Z,53.00
2019-04-11T03:35:03.004Z,54.50
2019-04-11T03:37:22.283Z,54.50
2019-04-11T03:39:37.550Z,54.10
2019-04-11T03:42:05.862Z,53.70
2019-04-11T03:44:28.983Z,54.80
2019-04-11T03:47:14.613Z,54.90
2019-04-11T03:52:19.342Z,54.90
2019-04-11T03:55:08.244Z,55.10
2019-04-11T03:57:35.132Z,55.40
2019-04-11T04:03:04.625Z,54.50
2019-04-11T04:05:44.430Z,53.70
2019-04-11T04:14:12.651Z,54.30
2019-04-11T04:16:52.801Z,54.70
2019-04-11T04:22:32.332Z,54.80
2019-04-11T04:25:12.285Z,55.70
2019-04-11T04:27:42.944Z,55.50
2019-04-11T04:30:17.633Z,55.20
2019-04-11T04:32:49.134Z,56.30
2019-04-11T04:35:21.556Z,56.20
2019-04-11T04:37:54.529Z,55.90
2019-04-11T04:40:44.810Z,56.30
2019-04-11T04:43:08.120Z,55.80
2019-04-11T04:45:58.112Z,55.10
2019-04-11T04:48:15.836Z,55.00
2019-04-11T04:50:52.311Z,54.20
2019-04-11T04:53:23.491Z,54.30
2019-04-11T04:55:54.262Z,54.60
2019-04-11T04:58:33.810Z,55.00
2019-04-11T05:01:34.913Z,55.50
2019-04-11T05:04:09.212Z,55.10
2019-04-11T05:06:46.772Z,55.10
2019-04-11T05:15:18.726Z,56.10
2019-04-11T05:17:54.229Z,55.50
2019-04-11T05:20:30.142Z,55.80
2019-04-11T05:25:53.035Z,56.00
2019-04-11T05:28:25.496Z,56.20
2019-04-11T05:30:58.367Z,56.40
2019-04-11T05:33:32.839Z,55.40
2019-04-11T05:36:14.341Z,55.90
2019-04-11T05:41:44.024Z,55.50
2019-04-11T05:44:16.732Z,55.30
2019-04-11T06:06:37.764Z,53.90
2019-04-11T06:09:20.709Z,54.40
2019-04-11T06:12:35.953Z,54.00
2019-04-11T06:18:26.211Z,53.10
2019-04-11T06:20:53.543Z,53.60
2019-04-11T06:23:40.421Z,53.40
2019-04-11T06:26:30.319Z,53.10
2019-04-11T06:29:14.071Z,53.20
2019-04-11T06:31:55.004Z,54.80
2019-04-11T06:34:27.073Z,54.70
2019-04-11T06:37:22.091Z,53.60
2019-04-11T06:39:58.263Z,54.10
2019-04-11T06:42:37.359Z,52.90
2019-04-11T06:45:27.389Z,52.20
2019-04-11T06:48:22.316Z,52.50
2019-04-11T06:56:27.938Z,51.80
2019-04-11T07:25:35.267Z,52.90
2019-04-11T07:28:50.124Z,52.50
2019-04-11T07:46:24.859Z,52.20
2019-04-11T19:21:28.857Z,45.90
2019-04-11T19:23:58.563Z,45.20
2019-04-11T19:26:32.187Z,45.30
2019-04-11T19:29:06.280Z,45.80
2019-04-11T19:37:48.413Z,47.10
2019-04-11T19:40:33.509Z,45.80
2019-04-11T22:14:41.954Z,46.20
2019-04-11T22:17:30.593Z,45.80
2019-04-11T22:32:19.794Z,46.30
2019-04-11T22:41:01.506Z,45.80
2019-04-11T22:49:42.094Z,47.80
2019-04-11T22:52:12.209Z,47.90
2019-04-11T22:54:43.084Z,47.90
2019-04-11T22:57:17.351Z,47.30
2019-04-11T22:59:46.514Z,47.50
2019-04-11T23:02:26.019Z,47.10
2019-04-11T23:05:00.086Z,47.20
2019-04-11T23:07:35.140Z,46.90
2019-04-11T23:10:09.453Z,47.00
2019-04-11T23:12:38.514Z,47.20
2019-04-11T23:15:16.233Z,47.10
2019-04-11T23:17:48.548Z,47.90
2019-04-11T23:23:15.592Z,49.20
2019-04-11T23:25:45.049Z,50.10
2019-04-11T23:28:18.012Z,50.00
2019-04-11T23:30:50.373Z,48.70
2019-04-11T23:33:18.997Z,49.60
2019-04-11T23:35:51.836Z,49.00
2019-04-11T23:38:23.881Z,49.70
2019-04-11T23:40:57.490Z,49.90
2019-04-11T23:43:32.456Z,48.10
2019-04-11T23:46:02.343Z,48.00
2019-04-11T23:48:46.552Z,47.70
2019-04-11T23:51:17.189Z,47.10
2019-04-11T23:56:45.300Z,47.50
